Time;durP1;ratioP1;P1;durP2;ratioP2;P2;SDS_P1;SDS_P2;PMS_P1;PMS_P2;Temp;Humidity;BMP_temperature;BMP_pressure;BME280_temperature;BME280_humidity;BME280_pressure;Samples;Min_cycle;Max_cycle;Signal;HPM_P1;HPM_P2
2021/04/19 00:01:28;;;;;;;2.85;2.55;;;22.70;34.30;;;;;;5051492;28;20441;-66
2021/04/19 00:03:54;;;;;;;2.70;2.40;;;22.70;34.40;;;;;;5051456;28;20484;-65
2021/04/19 00:06:20;;;;;;;2.40;2.20;;;22.70;34.30;;;;;;5051443;28;20459;-65
2021/04/19 00:08:46;;;;;;;3.03;2.58;;;22.70;34.30;;;;;;5051414;28;20424;-66
2021/04/19 00:11:11;;;;;;;2.87;2.40;;;22.70;34.30;;;;;;5050770;28;20491;-66
2021/04/19 00:13:37;;;;;;;2.90;2.40;;;22.70;34.30;;;;;;5051274;28;20397;-66
2021/04/19 00:16:03;;;;;;;2.60;2.40;;;22.70;34.30;;;;;;5051275;28;20462;-65
2021/04/19 00:18:29;;;;;;;2.90;2.60;;;22.60;34.20;;;;;;5051276;28;20394;-66
2021/04/19 00:20:54;;;;;;;2.57;2.37;;;22.60;34.30;;;;;;5051047;28;20392;-63
2021/04/19 00:23:20;;;;;;;2.60;2.40;;;22.60;34.20;;;;;;5051042;28;20447;-66
2021/04/19 00:25:46;;;;;;;3.00;2.70;;;22.60;34.20;;;;;;5051230;28;20390;-66
2021/04/19 00:28:11;;;;;;;2.70;2.50;;;22.60;34.30;;;;;;5051151;28;20389;-66
2021/04/19 00:30:37;;;;;;;2.73;2.50;;;22.50;34.20;;;;;;5051153;28;20425;-66
2021/04/19 00:33:03;;;;;;;2.83;2.47;;;22.50;34.20;;;;;;5050794;28;20389;-64
2021/04/19 00:35:28;;;;;;;2.78;2.50;;;22.50;34.20;;;;;;5049773;28;20400;-66
2021/04/19 00:37:54;;;;;;;2.90;2.60;;;22.50;34.20;;;;;;5051176;28;20397;-66
2021/04/19 00:40:20;;;;;;;3.10;2.78;;;22.50;34.20;;;;;;5049896;28;20389;-66
2021/04/19 00:42:49;;;;;;;3.30;2.70;;;22.50;34.10;;;;;;5050913;28;20838;-65
2021/04/19 00:45:16;;;;;;;2.80;2.50;;;22.50;34.10;;;;;;5050379;28;20385;-66
2021/04/19 00:47:45;;;;;;;2.85;2.53;;;22.40;34.20;;;;;;5051041;28;20873;-66
2021/04/19 00:50:14;;;;;;;2.80;2.60;;;22.40;34.20;;;;;;5050968;28;20385;-65
2021/04/19 00:52:40;;;;;;;2.75;2.50;;;22.40;34.20;;;;;;5050965;28;20900;-65
2021/04/19 00:55:10;;;;;;;2.88;2.58;;;22.40;34.20;;;;;;5050625;28;20390;-67
2021/04/19 00:57:37;;;;;;;2.88;2.58;;;22.40;34.20;;;;;;5050688;28;20523;-67
2021/04/19 01:00:27;;;;;;;2.95;2.65;;;22.40;34.20;;;;;;5051008;28;20448;-66
2021/04/19 01:02:54;;;;;;;3.00;2.70;;;22.30;34.10;;;;;;5048242;28;20421;-65
2021/04/19 01:05:26;;;;;;;3.22;2.80;;;22.30;34.20;;;;;;5052652;28;20389;-66
2021/04/19 01:07:52;;;;;;;2.72;2.53;;;22.30;34.20;;;;;;5054692;28;20484;-67
2021/04/19 01:10:18;;;;;;;2.95;2.65;;;22.30;34.20;;;;;;5054516;28;20390;-59
2021/04/19 01:12:43;;;;;;;2.60;2.40;;;22.30;34.20;;;;;;5054579;28;20393;-65
2021/04/19 01:15:13;;;;;;;3.20;2.73;;;22.30;34.20;;;;;;5054073;28;20435;-65
2021/04/19 01:17:39;;;;;;;2.92;2.63;;;22.20;34.10;;;;;;5054409;28;20438;-66
2021/04/19 01:20:07;;;;;;;2.90;2.60;;;22.20;34.20;;;;;;5054514;28;20861;-66
2021/04/19 01:22:35;;;;;;;2.97;2.67;;;22.20;34.20;;;;;;5054365;28;20421;-66
2021/04/19 01:25:00;;;;;;;3.10;2.80;;;22.20;34.10;;;;;;5054153;28;20392;-66
2021/04/19 01:27:26;;;;;;;3.07;2.77;;;22.20;34.10;;;;;;5054003;28;20389;-65
2021/04/19 01:29:51;;;;;;;3.28;2.97;;;22.20;34.20;;;;;;5054323;28;20789;-66
2021/04/19 01:32:17;;;;;;;2.90;2.60;;;22.20;34.10;;;;;;5054204;28;20761;-66
2021/04/19 01:34:43;;;;;;;2.78;2.53;;;22.20;34.20;;;;;;5054243;28;20881;-66
2021/04/19 01:37:09;;;;;;;3.03;2.72;;;22.10;34.10;;;;;;5052461;28;20425;-66
2021/04/19 01:39:35;;;;;;;3.17;2.87;;;22.10;34.10;;;;;;5054039;28;20484;-64
2021/04/19 01:42:00;;;;;;;3.35;2.88;;;22.10;34.10;;;;;;5053960;28;20405;-65
2021/04/19 01:44:26;;;;;;;3.10;2.80;;;22.10;34.10;;;;;;5053850;28;20400;-66
2021/04/19 01:46:54;;;;;;;3.00;2.70;;;22.10;34.20;;;;;;5053774;28;20405;-64
2021/04/19 01:49:20;;;;;;;2.70;2.50;;;22.10;34.10;;;;;;5053450;28;20547;-66
2021/04/19 01:51:46;;;;;;;3.00;2.60;;;22.10;34.20;;;;;;5052501;28;20796;-66
2021/04/19 01:54:12;;;;;;;3.28;2.97;;;22.10;34.20;;;;;;5052549;28;20410;-64
2021/04/19 01:56:38;;;;;;;3.00;2.67;;;22.00;34.10;;;;;;5053666;28;20397;-66
2021/04/19 01:59:05;;;;;;;3.00;2.72;;;22.00;34.10;;;;;;5052971;28;20449;-58
2021/04/19 02:01:33;;;;;;;2.80;2.50;;;22.00;34.20;;;;;;5053556;28;20410;-63
2021/04/19 02:04:15;;;;;;;3.08;2.78;;;22.00;34.20;;;;;;5053561;28;20424;-64
2021/04/19 02:06:46;;;;;;;3.17;2.88;;;22.00;34.10;;;;;;5053571;28;20869;-65
2021/04/19 02:09:12;;;;;;;2.55;2.35;;;22.00;34.10;;;;;;5053107;28;20397;-66
2021/04/19 02:11:45;;;;;;;2.80;2.60;;;21.90;34.10;;;;;;5053436;28;20742;-65
2021/04/19 02:14:35;;;;;;;2.80;2.53;;;21.90;34.10;;;;;;5053506;28;20385;-67
2021/04/19 02:17:37;;;;;;;2.45;2.25;;;21.90;34.10;;;;;;5051242;28;20831;-66
2021/04/19 02:20:37;;;;;;;2.90;2.60;;;21.90;34.10;;;;;;5052087;28;20436;-66
2021/04/19 02:23:13;;;;;;;3.10;2.80;;;21.90;34.10;;;;;;5051186;28;20417;-66
2021/04/19 02:25:41;;;;;;;2.50;2.30;;;21.90;34.10;;;;;;5053253;28;20409;-66
2021/04/19 02:28:30;;;;;;;3.13;2.83;;;21.90;34.10;;;;;;5052945;28;20468;-66
2021/04/19 02:31:02;;;;;;;2.92;2.60;;;21.80;34.10;;;;;;5052865;28;20389;-65
2021/04/19 02:33:33;;;;;;;3.20;2.90;;;21.80;34.20;;;;;;5052891;28;20842;-64
2021/04/19 02:35:59;;;;;;;2.50;2.30;;;21.80;34.10;;;;;;5053128;28;20448;-66
2021/04/19 02:38:34;;;;;;;3.08;2.70;;;21.80;34.10;;;;;;5053008;28;20409;-66
2021/04/19 02:41:02;;;;;;;3.10;2.80;;;21.80;34.10;;;;;;5052967;28;20440;-66
2021/04/19 02:43:32;;;;;;;3.10;2.80;;;21.80;34.10;;;;;;5052517;28;20515;-66
2021/04/19 02:45:59;;;;;;;2.70;2.50;;;21.80;34.10;;;;;;5052747;28;20852;-68
2021/04/19 02:48:26;;;;;;;2.55;2.30;;;21.80;34.10;;;;;;5052819;28;20393;-66
2021/04/19 02:50:53;;;;;;;2.63;2.42;;;21.70;34.10;;;;;;5051790;28;20386;-64
2021/04/19 02:53:21;;;;;;;3.08;2.78;;;21.70;34.10;;;;;;5052357;28;20804;-66
2021/04/19 02:55:48;;;;;;;3.25;2.95;;;21.70;34.10;;;;;;5052625;28;20873;-66
2021/04/19 02:58:19;;;;;;;3.10;2.80;;;21.70;34.10;;;;;;5051137;28;20467;-65
2021/04/19 03:00:50;;;;;;;3.22;2.92;;;21.70;34.10;;;;;;5052053;28;20382;-66
2021/04/19 03:03:25;;;;;;;3.10;2.80;;;21.70;34.10;;;;;;5051842;28;20417;-66
2021/04/19 03:05:52;;;;;;;3.15;2.70;;;21.70;34.10;;;;;;5051193;28;20439;-66
2021/04/19 03:08:21;;;;;;;3.20;2.90;;;21.70;34.10;;;;;;5052457;28;20397;-66
2021/04/19 03:10:57;;;;;;;2.95;2.67;;;21.70;34.20;;;;;;5052363;28;20472;-66
2021/04/19 03:13:25;;;;;;;2.85;2.63;;;21.70;34.10;;;;;;5051312;28;20389;-65
2021/04/19 03:15:53;;;;;;;2.90;2.70;;;21.70;34.20;;;;;;5050884;28;20746;-65
2021/04/19 03:18:20;;;;;;;2.80;2.50;;;21.70;34.20;;;;;;5052197;28;20658;-66
2021/04/19 03:21:04;;;;;;;3.15;2.85;;;21.60;34.20;;;;;;5052205;28;20378;-64
2021/04/19 03:23:33;;;;;;;3.00;2.70;;;21.60;34.10;;;;;;5051837;28;20421;-65
2021/04/19 03:26:01;;;;;;;2.80;2.60;;;21.60;34.10;;;;;;5052041;28;20411;-66
2021/04/19 03:28:30;;;;;;;3.00;2.60;;;21.60;34.20;;;;;;5051154;28;20389;-66
2021/04/19 03:30:56;;;;;;;2.90;2.60;;;21.60;34.20;;;;;;5052055;28;20866;-65
2021/04/19 03:33:23;;;;;;;3.00;2.70;;;21.60;34.20;;;;;;5051419;28;20811;-65
2021/04/19 03:35:50;;;;;;;2.90;2.60;;;21.60;34.20;;;;;;5051922;28;20393;-66
2021/04/19 03:38:19;;;;;;;2.80;2.60;;;21.50;34.20;;;;;;5051930;28;20408;-64
2021/04/19 03:40:47;;;;;;;3.00;2.70;;;21.50;34.20;;;;;;5051966;28;20881;-66
2021/04/19 03:43:16;;;;;;;2.88;2.58;;;21.50;34.20;;;;;;5051240;28;20413;-64
2021/04/19 03:45:44;;;;;;;3.10;2.80;;;21.50;34.20;;;;;;5051619;28;20409;-66
2021/04/19 03:48:21;;;;;;;2.67;2.47;;;21.50;34.20;;;;;;5051728;28;20401;-66
2021/04/19 03:50:50;;;;;;;2.63;2.42;;;21.50;34.20;;;;;;5051816;28;20476;-66
2021/04/19 03:53:17;;;;;;;3.08;2.78;;;21.50;34.20;;;;;;5051198;28;20504;-66
2021/04/19 03:55:44;;;;;;;2.80;2.60;;;21.50;34.20;;;;;;5051521;28;20378;-66
2021/04/19 03:58:12;;;;;;;2.80;2.50;;;21.50;34.20;;;;;;5051489;28;20396;-63
2021/04/19 04:00:40;;;;;;;2.67;2.40;;;21.40;34.20;;;;;;5051568;28;20384;-66
2021/04/19 04:03:07;;;;;;;3.33;3.00;;;21.40;34.20;;;;;;5051106;28;20413;-64
2021/04/19 04:05:34;;;;;;;2.80;2.33;;;21.40;34.10;;;;;;5051294;28;20873;-66
2021/04/19 04:07:59;;;;;;;3.10;2.80;;;21.50;34.40;;;;;;5051448;28;20385;-64
2021/04/19 04:10:25;;;;;;;2.70;2.40;;;21.40;34.70;;;;;;5050137;28;20439;-65
2021/04/19 04:12:51;;;;;;;3.05;2.75;;;21.40;34.60;;;;;;5051328;28;20389;-66
2021/04/19 04:15:18;;;;;;;3.40;2.83;;;21.40;35.50;;;;;;5050167;28;20932;-66
2021/04/19 04:17:44;;;;;;;3.13;2.80;;;21.40;36.30;;;;;;5049774;28;20396;-66
2021/04/19 04:20:11;;;;;;;2.85;2.63;;;21.40;36.40;;;;;;5051259;28;20484;-66
2021/04/19 04:22:36;;;;;;;2.50;2.30;;;21.40;36.60;;;;;;5050915;28;20920;-64
2021/04/19 04:25:03;;;;;;;3.58;2.55;;;21.40;36.70;;;;;;5051178;28;20428;-64
2021/04/19 04:27:29;;;;;;;2.75;2.33;;;21.50;36.90;;;;;;5050009;28;20393;-66
2021/04/19 04:29:54;;;;;;;2.60;2.40;;;21.50;37.20;;;;;;5050832;28;20740;-65
2021/04/19 04:32:20;;;;;;;2.58;2.20;;;21.50;36.70;;;;;;5039898;28;20396;-57
2021/04/19 04:34:46;;;;;;;3.38;2.30;;;21.60;37.30;;;;;;5031227;28;20414;-66
2021/04/19 04:37:11;;;;;;;3.70;2.50;;;21.60;37.40;;;;;;5030810;28;20900;-60
2021/04/19 04:39:37;;;;;;;2.72;2.53;;;21.60;37.80;;;;;;5032343;28;20425;-66
2021/04/19 04:42:05;;;;;;;5.87;2.50;;;21.60;37.90;;;;;;5035301;28;20486;-61
2021/04/19 04:44:38;;;;;;;3.63;2.70;;;21.70;38.90;;;;;;5034989;28;20422;-63
2021/04/19 04:47:12;;;;;;;3.13;2.60;;;21.70;39.00;;;;;;5034888;28;20942;-65
2021/04/19 04:49:50;;;;;;;2.70;2.47;;;21.70;38.60;;;;;;5034921;28;20399;-66
2021/04/19 04:52:17;;;;;;;4.18;2.45;;;21.60;37.40;;;;;;5035025;28;20391;-66
2021/04/19 04:54:47;;;;;;;3.00;2.33;;;21.60;37.30;;;;;;5034873;28;20379;-66
2021/04/19 04:57:17;;;;;;;3.35;2.50;;;21.60;37.20;;;;;;5034400;28;20391;-62
2021/04/19 04:59:44;;;;;;;4.13;3.13;;;21.60;37.40;;;;;;5034735;28;20482;-65
2021/04/19 05:02:12;;;;;;;3.45;2.55;;;21.60;37.50;;;;;;5041700;28;20413;-65
2021/04/19 05:04:38;;;;;;;4.88;2.55;;;21.60;37.10;;;;;;5048271;28;20490;-66
2021/04/19 05:07:04;;;;;;;4.28;2.42;;;21.60;37.60;;;;;;5054659;28;20378;-65
2021/04/19 05:09:30;;;;;;;3.65;2.53;;;21.60;37.30;;;;;;5054079;28;20446;-65
2021/04/19 05:11:56;;;;;;;3.70;2.30;;;21.60;37.20;;;;;;5054487;28;20464;-66
2021/04/19 05:14:26;;;;;;;3.10;2.30;;;21.60;36.90;;;;;;5054532;28;20528;-65
2021/04/19 05:16:52;;;;;;;3.83;2.53;;;21.60;37.00;;;;;;5054478;28;20396;-64
2021/04/19 05:19:18;;;;;;;3.10;2.40;;;21.50;36.80;;;;;;5053532;28;20488;-62
2021/04/19 05:21:43;;;;;;;3.15;2.45;;;21.50;36.80;;;;;;5054437;28;20468;-66
2021/04/19 05:24:09;;;;;;;2.80;2.50;;;21.40;36.80;;;;;;5054443;28;20485;-63
2021/04/19 05:26:35;;;;;;;3.30;2.60;;;21.40;36.70;;;;;;5054175;28;20738;-66
2021/04/19 05:29:01;;;;;;;2.90;2.60;;;21.40;36.60;;;;;;5053938;28;20393;-66
2021/04/19 05:31:27;;;;;;;3.40;3.03;;;21.40;36.50;;;;;;5053094;28;20921;-59
2021/04/19 05:33:54;;;;;;;3.85;3.30;;;21.40;36.30;;;;;;5053911;28;20390;-67
2021/04/19 05:36:23;;;;;;;3.08;2.15;;;21.40;36.30;;;;;;5054118;28;20397;-66
2021/04/19 05:38:49;;;;;;;2.88;2.10;;;21.40;37.10;;;;;;5053889;28;20397;-66
2021/04/19 05:41:16;;;;;;;4.13;2.30;;;21.40;36.60;;;;;;5053551;28;20392;-67
2021/04/19 05:43:42;;;;;;;3.15;1.95;;;21.40;36.40;;;;;;5053882;28;20479;-66
2021/04/19 05:46:08;;;;;;;2.90;2.22;;;21.30;36.50;;;;;;5053764;28;20405;-67
2021/04/19 05:48:34;;;;;;;3.05;2.30;;;21.30;36.40;;;;;;5053715;28;20385;-67
2021/04/19 05:51:03;;;;;;;2.65;2.25;;;21.30;36.40;;;;;;5052813;28;20409;-66
2021/04/19 05:53:30;;;;;;;2.95;2.30;;;21.30;36.30;;;;;;5053311;28;20393;-66
2021/04/19 05:55:56;;;;;;;2.80;2.40;;;21.30;36.20;;;;;;5049446;28;20403;-67
2021/04/19 05:58:35;;;;;;;3.30;2.70;;;21.30;36.30;;;;;;5052842;28;20488;-67
2021/04/19 06:01:07;;;;;;;2.80;2.47;;;21.30;36.20;;;;;;5051685;28;20390;-60
2021/04/19 06:03:55;;;;;;;2.95;2.33;;;21.30;36.20;;;;;;5033466;28;20450;-59
2021/04/19 06:06:35;;;;;;;3.27;2.60;;;21.20;36.00;;;;;;5032518;28;20398;-59
2021/04/19 06:09:24;;;;;;;3.00;2.47;;;21.20;36.00;;;;;;5032485;28;20448;-58
2021/04/19 06:11:56;;;;;;;2.90;2.58;;;21.20;36.00;;;;;;5033611;28;20423;-59
2021/04/19 06:14:32;;;;;;;3.00;2.58;;;21.20;36.00;;;;;;5033539;28;20391;-62
2021/04/19 06:17:01;;;;;;;2.97;2.13;;;21.20;36.00;;;;;;5033483;28;20928;-58
2021/04/19 06:19:27;;;;;;;3.28;2.50;;;21.20;36.00;;;;;;5032918;28;20406;-67
2021/04/19 06:21:53;;;;;;;3.33;2.60;;;21.20;35.90;;;;;;5033420;28;20835;-64
2021/04/19 06:24:19;;;;;;;3.80;3.00;;;21.10;35.60;;;;;;5033355;28;20883;-65
2021/04/19 06:26:45;;;;;;;4.20;3.10;;;21.10;35.70;;;;;;5033282;28;20380;-63
2021/04/19 06:29:12;;;;;;;3.90;3.28;;;21.10;35.70;;;;;;5033285;28;20399;-67
2021/04/19 06:31:48;;;;;;;4.45;3.75;;;21.10;35.80;;;;;;5032746;28;20536;-59
2021/04/19 06:34:15;;;;;;;4.50;3.20;;;21.00;36.00;;;;;;5032623;28;20390;-58
2021/04/19 06:36:43;;;;;;;3.88;3.47;;;21.10;36.10;;;;;;5031197;28;20421;-58
2021/04/19 06:39:14;;;;;;;4.70;3.17;;;21.10;36.00;;;;;;5030847;28;20465;-58
2021/04/19 06:41:41;;;;;;;4.20;3.10;;;21.10;35.90;;;;;;5032169;28;20391;-58
2021/04/19 06:44:07;;;;;;;3.35;2.78;;;21.00;35.90;;;;;;5032576;28;20429;-58
2021/04/19 06:46:37;;;;;;;3.65;2.70;;;21.10;36.10;;;;;;5031971;28;20474;-58
2021/04/19 06:49:04;;;;;;;3.95;2.70;;;21.20;36.00;;;;;;5032686;28;20391;-58
2021/04/19 06:51:31;;;;;;;3.17;2.53;;;21.20;35.70;;;;;;5032183;28;20391;-59
2021/04/19 06:53:58;;;;;;;2.90;2.30;;;21.30;35.70;;;;;;5032434;28;20721;-59
2021/04/19 06:56:29;;;;;;;2.80;2.28;;;21.40;35.40;;;;;;5032577;28;20394;-59
2021/04/19 06:58:56;;;;;;;2.88;2.08;;;21.40;35.20;;;;;;5032495;28;20387;-58
2021/04/19 07:01:24;;;;;;;2.53;2.30;;;21.40;35.10;;;;;;5031718;28;20395;-58
2021/04/19 07:03:54;;;;;;;2.97;2.25;;;21.50;35.10;;;;;;5032437;28;20931;-58
2021/04/19 07:06:22;;;;;;;3.70;2.30;;;21.60;34.90;;;;;;5032525;28;20395;-58
2021/04/19 07:08:48;;;;;;;3.00;2.27;;;21.60;34.70;;;;;;5030826;28;20724;-58
2021/04/19 07:11:21;;;;;;;3.38;2.10;;;21.60;34.60;;;;;;5032188;28;20879;-58
2021/04/19 07:13:47;;;;;;;3.25;2.40;;;21.60;34.60;;;;;;5032417;28;20801;-58
2021/04/19 07:16:13;;;;;;;3.72;2.35;;;21.70;34.70;;;;;;5032123;28;20919;-58
2021/04/19 07:18:39;;;;;;;2.85;2.05;;;21.70;34.50;;;;;;5032123;28;20402;-58
2021/04/19 07:21:07;;;;;;;3.78;2.10;;;21.70;34.50;;;;;;5032218;28;20394;-58
2021/04/19 07:23:36;;;;;;;3.20;2.10;;;21.70;34.70;;;;;;5031299;28;20415;-58
2021/04/19 07:26:03;;;;;;;3.53;2.28;;;21.70;34.50;;;;;;5032283;28;20383;-58
2021/04/19 07:28:35;;;;;;;3.10;2.00;;;21.70;34.40;;;;;;5031957;28;20391;-66
2021/04/19 07:31:01;;;;;;;3.40;2.25;;;21.70;34.30;;;;;;5031739;28;20923;-66
2021/04/19 07:33:29;;;;;;;2.83;2.10;;;21.80;35.00;;;;;;5031405;28;20395;-65
2021/04/19 07:35:54;;;;;;;3.13;2.00;;;21.80;34.20;;;;;;5031973;28;20394;-66
2021/04/19 07:38:33;;;;;;;3.22;2.40;;;21.80;34.20;;;;;;5031584;28;20379;-63
2021/04/19 07:40:59;;;;;;;3.60;2.28;;;21.80;34.10;;;;;;5031869;28;20391;-64
2021/04/19 07:43:25;;;;;;;4.73;2.53;;;21.90;34.20;;;;;;5031279;28;20546;-65
2021/04/19 07:46:10;;;;;;;4.40;2.50;;;21.90;34.10;;;;;;5040427;28;20440;-65
2021/04/19 07:48:39;;;;;;;5.38;2.47;;;21.90;34.00;;;;;;5049118;28;20442;-66
2021/04/19 07:51:32;;;;;;;6.45;3.00;;;21.90;34.00;;;;;;5051694;28;20388;-66
2021/04/19 07:54:16;;;;;;;7.18;3.08;;;21.90;34.00;;;;;;5050441;28;20408;-66
2021/04/19 07:57:05;;;;;;;9.98;3.00;;;21.90;33.90;;;;;;5051520;28;20385;-63
2021/04/19 07:59:32;;;;;;;5.97;3.10;;;21.90;33.90;;;;;;5050782;28;20374;-66
2021/04/19 08:02:09;;;;;;;7.75;3.20;;;22.00;33.90;;;;;;5050572;28;20397;-66
2021/04/19 08:04:48;;;;;;;9.80;3.30;;;22.00;33.80;;;;;;5051146;28;20402;-66
2021/04/19 08:07:25;;;;;;;7.53;3.47;;;22.00;33.70;;;;;;5051168;28;20382;-66
2021/04/19 08:09:58;;;;;;;9.50;4.20;;;22.00;33.70;;;;;;5051430;28;20394;-58
2021/04/19 08:12:42;;;;;;;10.33;3.93;;;22.00;33.90;;;;;;5039829;28;20434;-58
2021/04/19 08:15:21;;;;;;;13.73;4.00;;;22.00;33.80;;;;;;5050634;28;20941;-58
2021/04/19 08:17:46;;;;;;;13.52;4.63;;;22.00;33.80;;;;;;5051064;28;20439;-58
2021/04/19 08:20:15;;;;;;;21.80;6.03;;;22.00;33.90;;;;;;5051399;28;20393;-58
2021/04/19 08:22:44;;;;;;;22.98;5.68;;;22.00;34.10;;;;;;5051166;28;20869;-58
2021/04/19 08:25:12;;;;;;;24.30;5.80;;;22.00;34.10;;;;;;5051370;28;20400;-58
2021/04/19 08:27:42;;;;;;;22.13;5.70;;;22.00;34.20;;;;;;5050721;28;20472;-61
2021/04/19 08:30:13;;;;;;;28.88;6.30;;;22.10;34.20;;;;;;5051319;28;20393;-59
2021/04/19 08:32:39;;;;;;;29.23;6.68;;;22.00;34.20;;;;;;5051166;28;20385;-66
2021/04/19 08:35:08;;;;;;;34.85;6.95;;;22.00;34.20;;;;;;5051202;28;20382;-65
2021/04/19 08:37:34;;;;;;;30.30;5.90;;;22.10;34.20;;;;;;5050575;28;20384;-67
2021/04/19 08:40:01;;;;;;;29.17;6.75;;;22.10;34.20;;;;;;5051123;28;20389;-64
2021/04/19 08:42:28;;;;;;;38.60;6.93;;;22.10;34.20;;;;;;5050919;28;20417;-63
2021/04/19 08:44:59;;;;;;;46.05;8.73;;;22.10;34.20;;;;;;5051075;28;20385;-67
2021/04/19 08:47:28;;;;;;;41.63;8.20;;;22.10;34.20;;;;;;5050689;28;20769;-64
2021/04/19 08:49:59;;;;;;;45.67;8.40;;;22.10;34.20;;;;;;5051009;28;20765;-66
2021/04/19 08:52:27;;;;;;;52.92;9.38;;;22.10;34.20;;;;;;5050917;28;20443;-66
2021/04/19 08:54:53;;;;;;;43.83;8.40;;;22.10;34.20;;;;;;5050934;28;20385;-59
2021/04/19 08:57:19;;;;;;;50.63;9.63;;;22.10;34.20;;;;;;5050924;28;20397;-67
2021/04/19 08:59:46;;;;;;;53.13;8.77;;;22.10;34.10;;;;;;5050410;28;20389;-67
2021/04/19 09:02:16;;;;;;;53.10;9.05;;;22.10;34.10;;;;;;5050811;28;20441;-61
2021/04/19 09:05:02;;;;;;;55.05;9.43;;;22.10;34.10;;;;;;5050828;28;20396;-67
2021/04/19 09:07:33;;;;;;;56.45;9.40;;;22.10;34.10;;;;;;5050259;28;20385;-65
2021/04/19 09:09:59;;;;;;;53.67;10.23;;;22.10;34.10;;;;;;5050847;28;20396;-60
2021/04/19 09:12:28;;;;;;;56.53;9.40;;;22.10;34.10;;;;;;5050758;28;20397;-62
2021/04/19 09:15:17;;;;;;;53.08;9.75;;;22.10;34.00;;;;;;5050746;28;20417;-66
2021/04/19 09:18:03;;;;;;;48.33;9.25;;;22.10;34.10;;;;;;5049872;28;20927;-65
2021/04/19 09:20:43;;;;;;;52.13;9.52;;;22.10;34.10;;;;;;5050601;28;20473;-66
2021/04/19 09:23:53;;;;;;;46.88;8.70;;;22.10;34.00;;;;;;5050475;28;20421;-65
2021/04/19 09:26:51;;;;;;;44.22;8.40;;;22.10;34.10;;;;;;5031980;28;20401;-64
2021/04/19 09:29:40;;;;;;;40.17;8.95;;;22.10;34.10;;;;;;5054142;28;20730;-67
2021/04/19 09:32:17;;;;;;;40.08;8.52;;;22.10;34.10;;;;;;5054141;28;20400;-67
2021/04/19 09:34:47;;;;;;;42.17;9.30;;;22.10;34.10;;;;;;5054099;28;20390;-61
2021/04/19 09:37:15;;;;;;;48.03;8.65;;;22.10;34.00;;;;;;5054004;28;20789;-61
2021/04/19 09:39:57;;;;;;;40.77;8.27;;;22.10;34.00;;;;;;5053474;28;20389;-66
2021/04/19 09:43:04;;;;;;;46.90;8.50;;;22.10;34.10;;;;;;5053670;28;20418;-66
2021/04/19 09:45:44;;;;;;;41.38;8.32;;;22.10;34.20;;;;;;5052019;28;20445;-66
2021/04/19 09:48:26;;;;;;;36.43;8.23;;;22.10;34.20;;;;;;5052563;28;20855;-61
2021/04/19 09:51:18;;;;;;;38.85;7.88;;;22.10;34.20;;;;;;5053833;28;20935;-67
2021/04/19 09:53:54;;;;;;;33.55;7.55;;;22.10;34.20;;;;;;5053327;28;20422;-67
2021/04/19 09:56:28;;;;;;;35.05;7.82;;;22.10;34.20;;;;;;5053782;28;20404;-66
2021/04/19 09:58:54;;;;;;;36.10;7.75;;;22.10;34.10;;;;;;5053541;28;20386;-58
2021/04/19 10:01:21;;;;;;;30.90;7.40;;;22.10;34.10;;;;;;5053582;28;20946;-58
2021/04/19 10:03:52;;;;;;;30.85;6.78;;;22.10;34.00;;;;;;5053153;28;20414;-60
2021/04/19 10:06:44;;;;;;;32.67;7.45;;;22.10;34.00;;;;;;5053583;28;20881;-58
2021/04/19 10:09:15;;;;;;;27.40;7.15;;;22.10;34.00;;;;;;5053583;28;20927;-57
2021/04/19 10:11:47;;;;;;;29.98;6.53;;;22.10;33.90;;;;;;5052974;28;20433;-58
2021/04/19 10:14:15;;;;;;;27.45;6.22;;;22.10;33.90;;;;;;5053469;28;20409;-58
2021/04/19 10:16:44;;;;;;;19.17;6.05;;;22.10;33.80;;;;;;5053324;28;20424;-59
2021/04/19 10:19:10;;;;;;;21.42;6.00;;;22.20;33.90;;;;;;5053107;28;20393;-64
2021/04/19 10:21:38;;;;;;;23.73;6.45;;;22.20;34.20;;;;;;5052823;28;20385;-59
2021/04/19 10:24:12;;;;;;;20.88;5.50;;;22.20;34.10;;;;;;5053180;28;20844;-58
2021/04/19 10:26:39;;;;;;;16.88;5.55;;;22.20;34.10;;;;;;5053013;28;20444;-60
2021/04/19 10:29:16;;;;;;;18.10;5.05;;;22.20;34.40;;;;;;5052602;28;20393;-58
2021/04/19 10:32:00;;;;;;;17.35;5.13;;;22.20;34.10;;;;;;5050187;28;20916;-58
2021/04/19 10:34:28;;;;;;;16.50;4.80;;;22.20;33.90;;;;;;5048912;28;20792;-58
2021/04/19 10:37:00;;;;;;;11.48;4.80;;;22.20;33.90;;;;;;5050618;28;20464;-58
2021/04/19 10:39:30;;;;;;;13.65;4.57;;;22.20;34.20;;;;;;5046156;28;20535;-59
2021/04/19 10:41:59;;;;;;;12.10;4.50;;;22.20;34.10;;;;;;5051713;28;20385;-62
2021/04/19 10:44:39;;;;;;;13.55;4.32;;;22.20;34.10;;;;;;5052781;28;20432;-61
2021/04/19 10:47:06;;;;;;;15.88;4.75;;;22.20;34.00;;;;;;5052541;28;20455;-63
2021/04/19 10:49:32;;;;;;;13.00;3.97;;;22.20;35.20;;;;;;5050143;28;20480;-58
2021/04/19 10:52:00;;;;;;;10.15;4.10;;;22.20;35.30;;;;;;5052767;28;20390;-65
2021/04/19 10:54:33;;;;;;;12.88;4.10;;;22.20;34.90;;;;;;5052697;28;20389;-65
2021/04/19 10:57:01;;;;;;;8.77;4.10;;;22.20;34.80;;;;;;5052722;28;20464;-67
2021/04/19 10:59:27;;;;;;;11.48;4.30;;;22.30;34.70;;;;;;5052485;28;20385;-61
2021/04/19 11:02:11;;;;;;;9.20;4.07;;;22.30;34.60;;;;;;5052221;28;20971;-66
2021/04/19 11:04:39;;;;;;;9.43;4.00;;;22.30;34.80;;;;;;5052423;28;20497;-66
2021/04/19 11:07:27;;;;;;;10.43;3.85;;;22.30;34.60;;;;;;5052495;28;20401;-66
2021/04/19 11:10:13;;;;;;;9.90;3.67;;;22.30;34.60;;;;;;5052056;28;20804;-65
2021/04/19 11:12:40;;;;;;;10.90;3.80;;;22.30;34.60;;;;;;5052458;28;20389;-66
2021/04/19 11:15:12;;;;;;;8.88;3.80;;;22.30;34.20;;;;;;5051004;28;20908;-62
2021/04/19 11:17:38;;;;;;;8.32;3.42;;;22.40;34.40;;;;;;5051646;28;20385;-65
2021/04/19 11:20:30;;;;;;;7.13;3.67;;;22.40;34.10;;;;;;5051938;28;20431;-66
2021/04/19 11:23:00;;;;;;;9.88;3.88;;;22.40;34.00;;;;;;5051427;28;20539;-63
2021/04/19 11:25:30;;;;;;;11.38;3.78;;;22.40;33.70;;;;;;5036356;28;20393;-67
2021/04/19 11:28:31;;;;;;;7.85;3.30;;;22.40;33.80;;;;;;5036004;28;20461;-66
2021/04/19 11:31:10;;;;;;;8.18;3.38;;;22.40;33.80;;;;;;5047636;28;20480;-65
2021/04/19 11:33:35;;;;;;;6.90;3.15;;;22.40;33.70;;;;;;5048917;28;20488;-65
2021/04/19 11:36:06;;;;;;;8.30;3.25;;;22.40;33.70;;;;;;5051719;28;20932;-65
2021/04/19 11:38:35;;;;;;;7.68;3.13;;;22.40;33.70;;;;;;5049671;28;20385;-64
2021/04/19 11:41:04;;;;;;;6.75;3.00;;;22.40;33.80;;;;;;5047468;28;20401;-64
2021/04/19 11:43:35;;;;;;;8.30;2.93;;;22.40;33.90;;;;;;5051384;28;20418;-63
2021/04/19 11:46:09;;;;;;;7.40;2.83;;;22.40;33.80;;;;;;5048613;28;20429;-65
2021/04/19 11:48:53;;;;;;;6.80;3.30;;;22.40;33.70;;;;;;5050659;28;20393;-63
2021/04/19 11:51:20;;;;;;;6.35;3.00;;;22.50;33.70;;;;;;5050457;28;20382;-60
2021/04/19 11:53:47;;;;;;;5.50;2.70;;;22.50;33.90;;;;;;5047966;28;20455;-65
2021/04/19 11:56:14;;;;;;;4.82;2.80;;;22.50;33.80;;;;;;5050527;28;20389;-65
2021/04/19 11:58:43;;;;;;;5.78;2.58;;;22.60;33.90;;;;;;5051633;28;20413;-64
2021/04/19 12:01:10;;;;;;;4.60;2.50;;;22.60;33.90;;;;;;5051355;28;20382;-65
2021/04/19 12:03:40;;;;;;;4.65;2.50;;;22.70;33.90;;;;;;5050943;28;20444;-60
2021/04/19 12:06:07;;;;;;;5.03;2.50;;;22.70;33.80;;;;;;5051696;28;20469;-65
2021/04/19 12:08:34;;;;;;;5.22;2.40;;;22.70;33.70;;;;;;5051427;28;20837;-65
2021/04/19 12:11:00;;;;;;;5.05;2.53;;;22.70;33.60;;;;;;5051407;28;20404;-65
2021/04/19 12:13:26;;;;;;;4.45;2.30;;;22.70;33.70;;;;;;5051191;28;20390;-66
2021/04/19 12:15:53;;;;;;;3.97;2.30;;;22.80;33.80;;;;;;5050999;28;20891;-65
2021/04/19 12:18:20;;;;;;;3.55;2.15;;;22.80;33.70;;;;;;5051266;28;20389;-65
2021/04/19 12:20:46;;;;;;;3.92;2.40;;;22.80;33.70;;;;;;5051263;28;20417;-65
2021/04/19 12:23:12;;;;;;;4.43;2.25;;;22.80;33.50;;;;;;5051196;28;20798;-65
2021/04/19 12:25:37;;;;;;;3.97;2.20;;;22.80;33.30;;;;;;5050827;28;20404;-65
2021/04/19 12:28:03;;;;;;;6.15;2.78;;;22.80;33.20;;;;;;5049972;28;20404;-66
2021/04/19 12:30:30;;;;;;;5.10;2.73;;;22.70;34.10;;;;;;5049946;28;20412;-65
2021/04/19 12:32:57;;;;;;;4.80;2.50;;;22.80;35.00;;;;;;5050006;28;20417;-65
2021/04/19 12:35:23;;;;;;;3.67;2.20;;;22.80;35.00;;;;;;5048453;28;20481;-63
2021/04/19 12:37:49;;;;;;;9.65;2.63;;;22.90;36.80;;;;;;5050820;28;20386;-65
2021/04/19 12:40:15;;;;;;;9.57;2.77;;;23.20;35.90;;;;;;5051220;28;20476;-65
2021/04/19 12:42:41;;;;;;;11.52;2.78;;;23.30;35.60;;;;;;5048361;28;20965;-64
2021/04/19 12:45:08;;;;;;;11.10;2.60;;;23.40;35.60;;;;;;5049896;28;20489;-65
2021/04/19 12:47:34;;;;;;;8.82;2.45;;;23.40;35.30;;;;;;5049320;28;20820;-65
2021/04/19 12:50:00;;;;;;;5.90;2.50;;;23.40;35.40;;;;;;5049319;28;20991;-64
2021/04/19 12:52:26;;;;;;;7.78;2.45;;;23.40;35.10;;;;;;5049602;28;20926;-65
2021/04/19 12:54:52;;;;;;;7.50;2.58;;;23.50;34.90;;;;;;5050722;28;20412;-66
2021/04/19 12:57:18;;;;;;;8.40;2.47;;;23.50;34.80;;;;;;5050994;28;20393;-66
2021/04/19 12:59:44;;;;;;;9.73;2.50;;;23.50;34.70;;;;;;5050267;28;20397;-65
2021/04/19 13:02:10;;;;;;;6.17;2.57;;;23.40;34.60;;;;;;5054364;28;20479;-66